createdAt,value
2023-03-05T00:01:25.386Z,95181.59
2023-03-05T00:03:52.893Z,95182.28
2023-03-05T00:06:20.145Z,95180.47
2023-03-05T00:08:48.003Z,95183.28
2023-03-05T00:11:14.766Z,95188.13
2023-03-05T00:13:41.340Z,95191.94
2023-03-05T00:16:09.983Z,95187.84
2023-03-05T00:18:36.547Z,95184.38
2023-03-05T00:21:03.112Z,95193.19
2023-03-05T00:23:29.553Z,95197.28
2023-03-05T00:25:56.044Z,95183.31
2023-03-05T00:28:22.496Z,95191.78
2023-03-05T00:30:48.945Z,95193.72
2023-03-05T00:33:15.442Z,95186.53
2023-03-05T00:35:43.036Z,95194.53
2023-03-05T00:38:09.740Z,95191.09
2023-03-05T00:40:37.643Z,95181.47
2023-03-05T00:43:04.183Z,95177.50
2023-03-05T00:45:30.657Z,95180.13
2023-03-05T00:47:57.294Z,95179.38
2023-03-05T00:50:24.072Z,95173.97
2023-03-05T00:52:50.517Z,95181.91
2023-03-05T00:55:17.021Z,95158.38
2023-03-05T00:57:43.496Z,95161.56
2023-03-05T01:00:10.374Z,95161.56
2023-03-05T01:02:36.902Z,95159.53
2023-03-05T01:05:03.567Z,95153.19
2023-03-05T01:07:30.090Z,95152.75
2023-03-05T01:09:56.536Z,95155.66
2023-03-05T01:12:23.077Z,95155.00
2023-03-05T01:14:49.501Z,95171.88
2023-03-05T01:17:16.118Z,95159.81
2023-03-05T01:19:42.616Z,95159.94
2023-03-05T01:22:09.047Z,95165.63
2023-03-05T01:24:35.478Z,95164.81
2023-03-05T01:27:01.922Z,95152.13
2023-03-05T01:29:28.349Z,95158.47
2023-03-05T01:31:54.836Z,95159.84
2023-03-05T01:34:21.451Z,95156.66
2023-03-05T01:36:50.455Z,95160.09
2023-03-05T01:39:17.081Z,95157.66
2023-03-05T01:41:43.886Z,95164.53
2023-03-05T01:44:30.561Z,95165.53
2023-03-05T01:46:57.042Z,95162.59
2023-03-05T01:49:27.955Z,95156.75
2023-03-05T01:52:18.152Z,95158.72
2023-03-05T01:54:50.439Z,95158.25
2023-03-05T01:57:18.272Z,95157.25
2023-03-05T01:59:46.171Z,95163.94
2023-03-05T02:02:13.409Z,95164.28
2023-03-05T02:04:46.148Z,95156.63
2023-03-05T02:07:13.755Z,95157.06
2023-03-05T02:09:40.877Z,95158.38
2023-03-05T02:12:08.500Z,95143.22
2023-03-05T02:14:35.290Z,95149.53
2023-03-05T02:17:01.765Z,95149.41
2023-03-05T02:19:28.453Z,95149.41
2023-03-05T02:21:54.884Z,95147.69
2023-03-05T02:24:35.341Z,95152.03
2023-03-05T02:27:02.932Z,95160.69
2023-03-05T02:29:30.494Z,95150.59
2023-03-05T02:31:57.085Z,95147.81
2023-03-05T02:34:23.922Z,95149.59
2023-03-05T02:36:50.811Z,95141.75
2023-03-05T02:39:17.538Z,95133.59
2023-03-05T02:41:44.104Z,95139.09
2023-03-05T02:44:10.606Z,95142.34
2023-03-05T02:46:37.098Z,95137.63
2023-03-05T02:49:03.543Z,95142.94
2023-03-05T02:51:30.023Z,95142.94
2023-03-05T02:53:56.605Z,95151.09
2023-03-05T02:56:23.034Z,95142.94
2023-03-05T02:58:49.485Z,95134.75
2023-03-05T03:01:15.977Z,95144.66
2023-03-05T03:03:42.426Z,95131.72
2023-03-05T03:06:08.937Z,95130.75
2023-03-05T03:08:35.372Z,95134.34
2023-03-05T03:11:11.209Z,95133.00
2023-03-05T03:13:37.668Z,95140.38
2023-03-05T03:16:08.966Z,95133.28
2023-03-05T03:18:35.990Z,95135.47
2023-03-05T03:21:02.942Z,95125.03
2023-03-05T03:23:29.885Z,95142.94
2023-03-05T03:25:56.329Z,95130.50
2023-03-05T03:28:22.844Z,95129.53
2023-03-05T03:30:49.511Z,95130.47
2023-03-05T03:33:18.127Z,95128.16
2023-03-05T03:35:45.667Z,95123.88
2023-03-05T03:38:13.753Z,95120.97
2023-03-05T03:40:41.289Z,95123.84
2023-03-05T03:43:08.017Z,95121.53
2023-03-05T03:45:34.449Z,95116.31
2023-03-05T03:48:00.943Z,95123.97
2023-03-05T03:50:27.412Z,95113.34
2023-03-05T03:52:53.850Z,95107.13
2023-03-05T03:55:20.320Z,95110.72
2023-03-05T03:57:47.404Z,95107.13
2023-03-05T04:00:14.137Z,95101.91
2023-03-05T04:02:40.725Z,95104.50
2023-03-05T04:05:07.662Z,95104.31
2023-03-05T04:07:34.088Z,95103.53
2023-03-05T04:10:00.658Z,95106.31
2023-03-05T04:12:27.123Z,95103.88
2023-03-05T04:14:53.636Z,95091.63
2023-03-05T04:17:20.132Z,95098.63
2023-03-05T04:19:46.701Z,95094.59
2023-03-05T04:22:13.986Z,95098.34
2023-03-05T04:24:41.017Z,95099.00
2023-03-05T04:27:07.502Z,95091.81
2023-03-05T04:29:34.170Z,95091.44
2023-03-05T04:32:00.828Z,95093.41
2023-03-05T04:34:27.301Z,95090.81
2023-03-05T04:36:53.793Z,95084.63
2023-03-05T04:39:21.011Z,95095.72
2023-03-05T04:41:48.038Z,95088.16
2023-03-05T04:44:14.561Z,95090.41
2023-03-05T04:46:41.395Z,95087.97
2023-03-05T04:49:07.928Z,95085.53
2023-03-05T04:51:34.368Z,95085.06
2023-03-05T04:54:00.846Z,95086.22
2023-03-05T04:56:27.296Z,95085.44
2023-03-05T04:58:53.714Z,95081.34
2023-03-05T05:01:20.245Z,95079.75
2023-03-05T05:03:46.727Z,95082.38
2023-03-05T05:06:13.293Z,95075.69
2023-03-05T05:08:39.722Z,95082.38
2023-03-05T05:11:07.718Z,95079.41
2023-03-05T05:13:34.354Z,95084.44
2023-03-05T05:16:01.173Z,95078.22
2023-03-05T05:18:27.650Z,95080.69
2023-03-05T05:20:54.154Z,95076.41
2023-03-05T05:23:20.599Z,95079.41
2023-03-05T05:25:55.387Z,95084.34
2023-03-05T05:28:21.830Z,95085.66
2023-03-05T05:30:48.285Z,95087.97
2023-03-05T05:33:14.730Z,95080.50
2023-03-05T05:35:41.245Z,95083.47
2023-03-05T05:38:07.676Z,95079.84
2023-03-05T05:40:34.156Z,95088.34
2023-03-05T05:43:00.663Z,95086.25
2023-03-05T05:45:27.383Z,95072.75
2023-03-05T05:47:53.870Z,95077.66
2023-03-05T05:50:20.757Z,95083.56
2023-03-05T05:52:47.270Z,95085.50
2023-03-05T05:55:13.873Z,95077.31
2023-03-05T05:57:40.992Z,95073.13
2023-03-05T06:00:10.810Z,95078.34
2023-03-05T06:02:40.950Z,95080.28
2023-03-05T06:05:07.635Z,95082.00
2023-03-05T06:07:34.589Z,95079.22
2023-03-05T06:10:01.100Z,95077.06
2023-03-05T06:12:27.543Z,95079.56
2023-03-05T06:14:53.975Z,95087.47
2023-03-05T06:17:29.878Z,95081.72
2023-03-05T06:19:56.731Z,95083.81
2023-03-05T06:22:23.170Z,95093.56
2023-03-05T06:24:49.615Z,95084.72
2023-03-05T06:27:16.100Z,95085.09
2023-03-05T06:29:42.514Z,95088.69
2023-03-05T06:32:09.131Z,95079.50
2023-03-05T06:34:36.143Z,95088.06
2023-03-05T06:37:02.579Z,95080.56
2023-03-05T06:39:30.338Z,95080.09
2023-03-05T06:41:57.177Z,95082.06
2023-03-05T06:44:23.756Z,95080.00
2023-03-05T06:46:50.201Z,95072.78
2023-03-05T06:49:16.658Z,95079.16
2023-03-05T06:51:43.125Z,95072.66
2023-03-05T06:54:11.436Z,95076.47
2023-03-05T06:56:38.706Z,95078.00
2023-03-05T06:59:06.035Z,95077.66
2023-03-05T07:01:32.602Z,95077.41
2023-03-05T07:04:00.412Z,95078.00
2023-03-05T07:06:30.129Z,95085.97
2023-03-05T07:08:56.865Z,95072.28
2023-03-05T07:11:23.860Z,95065.94
2023-03-05T07:13:50.788Z,95064.63
2023-03-05T07:16:18.790Z,95062.97
2023-03-05T07:18:45.772Z,95066.06
2023-03-05T07:21:15.682Z,95071.47
2023-03-05T07:23:42.110Z,95067.84
2023-03-05T07:26:08.636Z,95064.09
2023-03-05T07:28:35.391Z,95065.69
2023-03-05T07:31:03.131Z,95061.31
2023-03-05T07:33:29.906Z,95066.53
2023-03-05T07:35:56.613Z,95062.81
2023-03-05T07:38:23.251Z,95066.41
2023-03-05T07:40:50.032Z,95066.75
2023-03-05T07:43:16.585Z,95065.59
2023-03-05T07:45:43.706Z,95064.91
2023-03-05T07:48:13.468Z,95054.47
2023-03-05T07:50:40.287Z,95054.34
2023-03-05T07:53:06.730Z,95052.72
2023-03-05T07:55:33.194Z,95049.94
2023-03-05T07:57:59.688Z,95054.78
2023-03-05T08:00:26.136Z,95057.06
2023-03-05T08:02:52.649Z,95050.47
2023-03-05T08:05:19.115Z,95050.91
2023-03-05T08:07:45.547Z,95053.63
2023-03-05T08:10:12.140Z,95047.41
2023-03-05T08:12:38.892Z,95048.06
2023-03-05T08:15:05.627Z,95040.88
2023-03-05T08:17:32.044Z,95038.88
2023-03-05T08:20:00.243Z,95044.03
2023-03-05T08:22:27.183Z,95044.50
2023-03-05T08:24:53.778Z,95046.00
2023-03-05T08:27:20.323Z,95049.44
2023-03-05T08:29:46.781Z,95052.22
2023-03-05T08:32:13.344Z,95052.22
2023-03-05T08:34:39.846Z,95041.41
2023-03-05T08:37:07.789Z,95043.66
2023-03-05T08:39:34.282Z,95051.78
2023-03-05T08:42:00.726Z,95046.84
2023-03-05T08:44:27.353Z,95043.06
2023-03-05T08:46:53.878Z,95038.91
2023-03-05T08:49:20.367Z,95038.59
2023-03-05T08:51:46.843Z,95043.06
2023-03-05T08:54:13.301Z,95041.38
2023-03-05T08:56:39.768Z,95040.56
2023-03-05T08:59:06.483Z,95045.25
2023-03-05T09:01:33.048Z,95041.47
2023-03-05T09:04:00.100Z,95037.69
2023-03-05T09:06:27.027Z,95040.47
2023-03-05T09:08:53.801Z,95041.66
2023-03-05T09:11:20.707Z,95039.22
2023-03-05T09:13:47.307Z,95036.78
2023-03-05T09:16:15.123Z,95040.72
2023-03-05T09:18:41.779Z,95038.59
2023-03-05T09:21:09.608Z,95041.09
2023-03-05T09:23:36.099Z,95036.41
2023-03-05T09:26:04.699Z,95046.13
2023-03-05T09:28:31.122Z,95042.56
2023-03-05T09:30:57.756Z,95033.06
2023-03-05T09:33:24.206Z,95032.56
2023-03-05T09:35:50.686Z,95042.19
2023-03-05T09:38:19.002Z,95037.84
2023-03-05T09:41:07.809Z,95038.56
2023-03-05T09:43:39.400Z,95054.72
2023-03-05T09:46:28.707Z,95049.38
2023-03-05T09:49:07.481Z,95044.50
2023-03-05T09:51:36.466Z,95039.38
2023-03-05T09:54:05.268Z,95039.44
2023-03-05T09:56:35.854Z,95043.75
2023-03-05T09:59:28.563Z,95037.59
2023-03-05T10:02:02.238Z,95041.13
2023-03-05T10:04:33.291Z,95037.13
2023-03-05T10:07:14.065Z,95034.41
2023-03-05T10:09:43.271Z,95033.34
2023-03-05T10:12:19.739Z,95029.38
2023-03-05T10:14:46.550Z,95032.25
2023-03-05T10:17:30.444Z,95033.53
2023-03-05T10:20:15.285Z,95021.44
2023-03-05T10:22:47.855Z,95015.94
2023-03-05T10:25:20.435Z,95016.56
2023-03-05T10:28:06.180Z,95015.88
2023-03-05T10:30:32.823Z,95009.63
2023-03-05T10:33:02.328Z,95003.06
2023-03-05T10:35:31.673Z,95003.34
2023-03-05T10:38:21.444Z,95005.31
2023-03-05T10:41:12.269Z,94994.06
2023-03-05T10:43:38.731Z,94988.28
2023-03-05T10:46:05.527Z,94989.19
2023-03-05T10:48:40.843Z,94985.84
2023-03-05T10:51:30.336Z,94983.97
2023-03-05T10:54:05.039Z,94977.03
2023-03-05T10:56:31.930Z,94976.38
2023-03-05T10:58:58.562Z,94969.00
2023-03-05T11:01:26.315Z,94964.69
2023-03-05T11:04:06.832Z,94963.06
2023-03-05T11:06:40.623Z,94961.19
2023-03-05T11:09:12.937Z,94960.44
2023-03-05T11:11:39.465Z,94949.53
2023-03-05T11:14:05.927Z,94947.56
2023-03-05T11:16:34.227Z,94937.63
2023-03-05T11:19:19.098Z,94936.78
2023-03-05T11:21:46.745Z,94925.19
2023-03-05T11:24:18.289Z,94917.16
2023-03-05T11:26:52.353Z,94928.44
2023-03-05T11:29:21.570Z,94922.38
2023-03-05T11:31:48.250Z,94916.16
2023-03-05T11:34:17.853Z,94912.38
2023-03-05T11:36:58.721Z,94918.03
2023-03-05T11:39:26.128Z,94915.75
2023-03-05T11:41:53.763Z,94906.56
2023-03-05T11:44:35.640Z,94902.56
2023-03-05T11:47:04.217Z,94904.19
2023-03-05T11:49:33.447Z,94897.69
2023-03-05T11:52:08.241Z,94892.84
2023-03-05T11:54:55.006Z,94889.22
2023-03-05T11:57:23.953Z,94895.09
2023-03-05T11:59:52.251Z,94883.88
2023-03-05T12:02:21.893Z,94872.81
2023-03-05T12:04:48.906Z,94870.78
2023-03-05T12:07:17.795Z,94875.53
2023-03-05T12:09:49.434Z,94873.53
2023-03-05T12:12:38.036Z,94880.75
2023-03-05T12:15:04.501Z,94868.69
2023-03-05T12:17:43.466Z,94879.38
2023-03-05T12:20:16.318Z,94873.59
2023-03-05T12:22:43.458Z,94870.06
2023-03-05T12:25:28.439Z,94868.13
2023-03-05T12:27:55.212Z,94864.56
2023-03-05T12:30:33.924Z,94861.94
2023-03-05T12:33:01.847Z,94860.13
2023-03-05T12:35:29.670Z,94849.25
2023-03-05T12:37:57.297Z,94853.25
2023-03-05T12:40:30.980Z,94847.63
2023-03-05T12:42:57.467Z,94841.63
2023-03-05T12:45:23.941Z,94845.31
2023-03-05T12:47:56.459Z,94840.50
2023-03-05T12:50:29.066Z,94832.47
2023-03-05T12:53:04.776Z,94834.50
2023-03-05T12:55:34.749Z,94833.09
2023-03-05T12:58:09.401Z,94831.53
2023-03-05T13:00:49.356Z,94826.31
2023-03-05T13:03:21.531Z,94821.66
2023-03-05T13:05:55.933Z,94817.28
2023-03-05T13:08:23.863Z,94828.75
2023-03-05T13:10:52.020Z,94819.91
2023-03-05T13:13:20.582Z,94818.91
2023-03-05T13:15:47.944Z,94815.72
2023-03-05T13:18:27.957Z,94813.91
2023-03-05T13:21:20.801Z,94809.22
2023-03-05T13:23:57.750Z,94807.81
2023-03-05T13:26:38.197Z,94806.47
2023-03-05T13:29:15.466Z,94801.56
2023-03-05T13:31:43.961Z,94806.81
2023-03-05T13:34:18.853Z,94809.59
2023-03-05T13:36:46.573Z,94807.59
2023-03-05T13:39:25.954Z,94813.22
2023-03-05T13:41:59.734Z,94821.06
2023-03-05T13:44:26.208Z,94819.84
2023-03-05T13:46:53.078Z,94821.31
2023-03-05T13:49:27.174Z,94818.28
2023-03-05T13:51:55.375Z,94812.00
2023-03-05T13:54:23.142Z,94813.06
2023-03-05T13:56:54.264Z,94808.22
2023-03-05T13:59:22.194Z,94801.16
2023-03-05T14:01:49.424Z,94802.34
2023-03-05T14:04:15.865Z,94801.72
2023-03-05T14:06:49.993Z,94794.91
2023-03-05T14:09:19.598Z,94793.13
2023-03-05T14:12:03.944Z,94798.59
2023-03-05T14:14:34.381Z,94797.94
2023-03-05T14:17:19.357Z,94800.38
2023-03-05T14:19:45.859Z,94797.16
2023-03-05T14:22:30.402Z,94793.72
2023-03-05T14:24:56.880Z,94797.06
2023-03-05T14:27:23.339Z,94797.50
2023-03-05T14:29:50.057Z,94787.28
2023-03-05T14:32:30.225Z,94794.34
2023-03-05T14:34:58.411Z,94790.88
2023-03-05T14:37:27.849Z,94793.88
2023-03-05T14:40:05.606Z,94793.50
2023-03-05T14:42:39.411Z,94788.28
2023-03-05T14:45:19.469Z,94788.72
2023-03-05T14:47:46.079Z,94794.78
2023-03-05T14:50:22.473Z,94791.69
2023-03-05T14:52:50.939Z,94789.34
2023-03-05T14:55:18.660Z,94790.56
2023-03-05T14:57:45.973Z,94791.41
2023-03-05T15:00:18.789Z,94807.75
2023-03-05T15:02:45.470Z,94791.03
2023-03-05T15:05:12.006Z,94790.41
2023-03-05T15:07:38.624Z,94798.25
2023-03-05T15:10:06.332Z,94806.63
2023-03-05T15:12:33.227Z,94810.25
2023-03-05T15:14:59.836Z,94806.00
2023-03-05T15:17:33.588Z,94809.81
2023-03-05T15:20:00.837Z,94806.47
2023-03-05T15:22:27.348Z,94809.13
2023-03-05T15:24:53.785Z,94814.00
2023-03-05T15:27:20.265Z,94816.63
2023-03-05T15:29:46.750Z,94816.97
2023-03-05T15:32:13.340Z,94816.50
2023-03-05T15:34:39.874Z,94824.16
2023-03-05T15:37:06.421Z,94818.06
2023-03-05T15:39:32.892Z,94832.06
2023-03-05T15:41:59.402Z,94838.56
2023-03-05T15:44:25.947Z,94852.13
2023-03-05T15:46:52.711Z,94864.50
2023-03-05T15:49:20.080Z,94866.13
2023-03-05T15:51:46.637Z,94852.25
2023-03-05T15:54:13.082Z,94853.91
2023-03-05T15:56:40.506Z,94847.41
2023-03-05T15:59:07.918Z,94831.53
2023-03-05T16:01:34.424Z,94840.00
2023-03-05T16:04:00.998Z,94841.31
2023-03-05T16:06:27.829Z,94844.47
2023-03-05T16:09:00.296Z,94837.91
2023-03-05T16:11:27.452Z,94845.81
2023-03-05T16:13:54.192Z,94831.78
2023-03-05T16:16:23.626Z,94833.06
2023-03-05T16:18:50.236Z,94835.03
2023-03-05T16:21:16.767Z,94831.53
2023-03-05T16:23:43.270Z,94824.97
2023-03-05T16:26:10.613Z,94829.63
2023-03-05T16:28:37.073Z,94825.03
2023-03-05T16:31:03.680Z,94843.06
2023-03-05T16:33:30.175Z,94829.75
2023-03-05T16:36:19.707Z,94834.41
2023-03-05T16:38:46.867Z,94845.50
2023-03-05T16:41:16.864Z,94852.38
2023-03-05T16:43:44.162Z,94850.00
2023-03-05T16:46:11.179Z,94849.63
2023-03-05T16:48:37.725Z,94854.47
2023-03-05T16:51:04.829Z,94846.63
2023-03-05T16:53:31.475Z,94855.09
2023-03-05T16:55:57.910Z,94844.47
2023-03-05T16:58:24.394Z,94847.88
2023-03-05T17:00:50.863Z,94847.25
2023-03-05T17:03:17.429Z,94841.22
2023-03-05T17:05:43.914Z,94847.25
2023-03-05T17:08:10.355Z,94847.25
2023-03-05T17:10:36.849Z,94847.25
2023-03-05T17:13:03.326Z,94833.56
2023-03-05T17:15:29.837Z,94846.00
2023-03-05T17:17:56.384Z,94843.94
2023-03-05T17:20:22.863Z,94843.94
2023-03-05T17:22:49.329Z,94843.31
2023-03-05T17:25:15.853Z,94844.72
2023-03-05T17:27:42.347Z,94836.44
2023-03-05T17:30:09.072Z,94840.56
2023-03-05T17:32:35.619Z,94835.16
2023-03-05T17:35:04.385Z,94835.78
2023-03-05T17:37:31.891Z,94835.78
2023-03-05T17:39:58.341Z,94833.38
2023-03-05T17:42:24.933Z,94829.31
2023-03-05T17:44:51.570Z,94835.78
2023-03-05T17:47:18.058Z,94832.94
2023-03-05T17:49:44.657Z,94824.31
2023-03-05T17:52:11.221Z,94833.38
2023-03-05T17:54:37.878Z,94831.16
2023-03-05T17:57:04.560Z,94823.88
2023-03-05T17:59:31.051Z,94826.75
2023-03-05T18:01:57.518Z,94824.56
2023-03-05T18:04:24.062Z,94811.13
2023-03-05T18:06:50.559Z,94812.13
2023-03-05T18:09:17.323Z,94814.31
2023-03-05T18:11:43.797Z,94811.06
2023-03-05T18:14:10.284Z,94812.22
2023-03-05T18:16:36.744Z,94811.50
2023-03-05T18:19:03.361Z,94800.06
2023-03-05T18:21:29.900Z,94812.94
2023-03-05T18:23:56.387Z,94808.53
2023-03-05T18:26:22.903Z,94809.75
2023-03-05T18:28:49.402Z,94801.13
2023-03-05T18:31:16.631Z,94802.72
2023-03-05T18:33:43.199Z,94810.75
2023-03-05T18:36:10.842Z,94809.75
2023-03-05T18:38:38.481Z,94809.94
2023-03-05T18:41:06.277Z,94809.16
2023-03-05T18:43:32.877Z,94795.91
2023-03-05T18:45:59.552Z,94799.94
2023-03-05T18:48:26.331Z,94794.06
2023-03-05T18:50:53.567Z,94806.53
2023-03-05T18:53:21.602Z,94794.44
2023-03-05T18:55:48.872Z,94787.25
2023-03-05T18:58:17.593Z,94785.44
2023-03-05T19:00:45.113Z,94784.63
2023-03-05T19:03:11.605Z,94781.38
2023-03-05T19:05:38.645Z,94783.38
2023-03-05T19:08:05.334Z,94780.50
2023-03-05T19:10:32.258Z,94778.06
2023-03-05T19:13:21.405Z,94793.94
2023-03-05T19:15:49.220Z,94788.09
2023-03-05T19:18:26.449Z,94786.09
2023-03-05T19:20:55.997Z,94798.53
2023-03-05T19:23:22.581Z,94793.69
2023-03-05T19:25:49.006Z,94798.91
2023-03-05T19:28:15.684Z,94798.28
2023-03-05T19:30:42.341Z,94796.03
2023-03-05T19:33:09.074Z,94793.44
2023-03-05T19:35:35.530Z,94799.03
2023-03-05T19:38:01.985Z,94802.63
2023-03-05T19:40:28.522Z,94800.38
2023-03-05T19:42:54.988Z,94797.59
2023-03-05T19:45:21.459Z,94801.00
2023-03-05T19:47:47.887Z,94812.03
2023-03-05T19:50:15.279Z,94812.81
2023-03-05T19:52:41.823Z,94807.97
2023-03-05T19:55:08.582Z,94808.16
2023-03-05T19:57:35.012Z,94796.09
2023-03-05T20:00:01.466Z,94803.09
2023-03-05T20:02:28.303Z,94799.03
2023-03-05T20:04:54.940Z,94804.56
2023-03-05T20:07:21.413Z,94806.34
2023-03-05T20:09:50.268Z,94806.16
2023-03-05T20:12:16.809Z,94803.09
2023-03-05T20:14:43.327Z,94796.28
2023-03-05T20:17:09.850Z,94795.53
2023-03-05T20:19:36.470Z,94798.25
2023-03-05T20:22:03.461Z,94796.28
2023-03-05T20:24:29.921Z,94797.50
2023-03-05T20:26:56.504Z,94796.34
2023-03-05T20:29:23.008Z,94794.53
2023-03-05T20:31:50.090Z,94794.19
2023-03-05T20:34:17.732Z,94791.56
2023-03-05T20:36:44.371Z,94786.34
2023-03-05T20:39:10.895Z,94795.59
2023-03-05T20:41:38.477Z,94792.34
2023-03-05T20:44:05.184Z,94786.34
2023-03-05T20:46:33.048Z,94780.75
2023-03-05T20:49:01.158Z,94786.59
2023-03-05T20:51:29.559Z,94786.34
2023-03-05T20:53:58.474Z,94784.72
2023-03-05T20:56:27.890Z,94787.50
2023-03-05T20:58:55.496Z,94782.09
2023-03-05T21:01:22.029Z,94789.22
2023-03-05T21:03:48.553Z,94783.06
2023-03-05T21:06:15.022Z,94772.84
2023-03-05T21:08:41.970Z,94779.72
2023-03-05T21:11:09.311Z,94772.06
2023-03-05T21:13:36.232Z,94775.84
2023-03-05T21:16:06.669Z,94774.50
2023-03-05T21:18:33.165Z,94772.84
2023-03-05T21:20:59.643Z,94769.06
2023-03-05T21:23:26.078Z,94761.88
2023-03-05T21:25:52.643Z,94756.63
2023-03-05T21:28:19.204Z,94756.00
2023-03-05T21:30:46.876Z,94765.44
2023-03-05T21:33:14.591Z,94752.38
2023-03-05T21:35:41.294Z,94754.03
2023-03-05T21:38:08.777Z,94749.97
2023-03-05T21:40:36.392Z,94753.59
2023-03-05T21:43:03.786Z,94739.91
2023-03-05T21:45:30.427Z,94744.31
2023-03-05T21:47:58.693Z,94745.94
2023-03-05T21:50:25.630Z,94746.91
2023-03-05T21:52:52.488Z,94742.06
2023-03-05T21:55:22.508Z,94743.06
2023-03-05T21:57:49.062Z,94747.47
2023-03-05T22:00:18.155Z,94738.19
2023-03-05T22:02:45.954Z,94731.00
2023-03-05T22:05:13.115Z,94722.19
2023-03-05T22:07:39.854Z,94726.78
2023-03-05T22:10:06.838Z,94729.13
2023-03-05T22:13:12.567Z,94724.19
2023-03-05T22:15:43.606Z,94723.22
2023-03-05T22:18:10.220Z,94724.38
2023-03-05T22:20:37.156Z,94726.66
2023-03-05T22:23:04.407Z,94724.31
2023-03-05T22:25:30.877Z,94719.91
2023-03-05T22:27:57.309Z,94723.94
2023-03-05T22:30:23.945Z,94722.78
2023-03-05T22:32:50.413Z,94721.75
2023-03-05T22:35:16.871Z,94723.41
2023-03-05T22:37:43.320Z,94720.84
2023-03-05T22:40:13.442Z,94722.09
2023-03-05T22:42:41.383Z,94722.47
2023-03-05T22:45:08.585Z,94723.66
2023-03-05T22:47:35.047Z,94723.66
2023-03-05T22:50:01.523Z,94730.28
2023-03-05T22:52:28.125Z,94726.88
2023-03-05T22:54:56.056Z,94722.91
2023-03-05T22:57:22.761Z,94725.31
2023-03-05T22:59:49.832Z,94724.53
2023-03-05T23:02:17.033Z,94716.69
2023-03-05T23:04:51.293Z,94711.47
2023-03-05T23:07:19.499Z,94708.88
2023-03-05T23:09:50.595Z,94702.38
2023-03-05T23:12:17.161Z,94708.44
2023-03-05T23:14:43.589Z,94709.22
2023-03-05T23:17:10.030Z,94706.59
2023-03-05T23:19:39.764Z,94712.56
2023-03-05T23:22:07.476Z,94716.34
2023-03-05T23:24:33.943Z,94725.00
2023-03-05T23:27:00.899Z,94720.78
2023-03-05T23:29:47.129Z,94714.94
2023-03-05T23:32:13.784Z,94712.31
2023-03-05T23:34:40.297Z,94715.91
2023-03-05T23:37:06.761Z,94711.69
2023-03-05T23:39:33.183Z,94704.88
2023-03-05T23:41:59.646Z,94706.66
2023-03-05T23:44:26.047Z,94712.69
2023-03-05T23:46:52.469Z,94709.09
2023-03-05T23:49:18.997Z,94707.47
2023-03-05T23:51:45.467Z,94704.06
2023-03-05T23:54:11.894Z,94700.19
2023-03-05T23:56:38.333Z,94703.63
2023-03-05T23:59:04.756Z,94721.69
